Terminal Aerodrome Forecast
Issued by NWS

Home | Current Version | Previous Version | Text Only | Print | Product List | Glossary On
Versions: 1 2 3 4 5 6 7 8 9 10 11 12 13 14 15
000
FTUS44 KEPZ 182300 CCA
TAFDMN
TAF COR
KDMN 182350Z 1900/1924 27012G22KT P6SM VCSH SCT070 BKN120 OVC250
      TEMPO 1900/1904 27017G27KT 6SM -TSRA BKN060CB BKN100 OVC200
     FM190600 06006KT P6SM VCSH SCT050 BKN080 OVC200
     FM191200 17010KT P6SM VCTS SCT050CB BKN100 OVC250 PROB30
      1912/1918 VRB18G28KT 6SM -TSRA BKN040CB OVC080
     FM192000 25010G20KT P6SM VCTS SCT040CB BKN080 OVC120=

USA.gov is the U.S. government's official web portal to all federal, state and local government web resources and services.